createdAt,value
2022-07-25T00:00:39.565Z,48.00
2022-07-25T00:03:14.229Z,48.10
2022-07-25T00:05:48.998Z,48.18
2022-07-25T00:08:22.107Z,48.42
2022-07-25T00:10:55.338Z,48.87
2022-07-25T00:13:28.374Z,49.00
2022-07-25T00:16:04.396Z,49.06
2022-07-25T00:18:37.552Z,49.03
2022-07-25T00:21:10.556Z,49.13
2022-07-25T00:23:44.026Z,49.35
2022-07-25T00:26:17.564Z,49.29
2022-07-25T00:28:50.623Z,49.36
2022-07-25T00:31:23.615Z,49.47
2022-07-25T00:33:57.983Z,49.77
2022-07-25T00:36:31.266Z,50.31
2022-07-25T00:39:06.985Z,50.51
2022-07-25T00:41:39.976Z,50.70
2022-07-25T00:44:14.344Z,50.70
2022-07-25T00:46:47.486Z,50.91
2022-07-25T00:49:20.741Z,51.08
2022-07-25T00:51:55.025Z,51.34
2022-07-25T00:54:28.244Z,51.53
2022-07-25T00:57:04.127Z,51.40
2022-07-25T00:59:37.652Z,51.42
2022-07-25T01:02:10.984Z,51.32
2022-07-25T01:04:47.439Z,51.47
2022-07-25T01:07:20.868Z,51.43
2022-07-25T01:09:54.278Z,52.03
2022-07-25T01:12:27.735Z,52.72
2022-07-25T01:15:00.941Z,53.20
2022-07-25T01:17:35.698Z,52.88
2022-07-25T01:20:28.484Z,53.31
2022-07-25T01:23:02.337Z,53.16
2022-07-25T01:25:35.439Z,53.94
2022-07-25T01:28:09.016Z,54.39
2022-07-25T01:30:42.257Z,54.61
2022-07-25T01:33:19.193Z,54.69
2022-07-25T01:35:52.721Z,54.49
2022-07-25T01:38:25.888Z,54.46
2022-07-25T01:40:59.002Z,54.19
2022-07-25T01:43:33.039Z,54.76
2022-07-25T01:46:07.234Z,55.78
2022-07-25T01:48:41.536Z,56.25
2022-07-25T01:51:15.263Z,55.71
2022-07-25T01:53:50.091Z,55.50
2022-07-25T01:56:23.081Z,55.69
2022-07-25T01:58:58.058Z,56.64
2022-07-25T02:01:31.478Z,56.54
2022-07-25T02:04:05.326Z,56.39
2022-07-25T02:06:41.635Z,56.26
2022-07-25T02:09:14.599Z,56.67
2022-07-25T02:11:47.562Z,56.62
2022-07-25T02:14:20.778Z,56.44
2022-07-25T02:16:54.145Z,56.18
2022-07-25T02:19:27.402Z,56.26
2022-07-25T02:22:03.521Z,56.19
2022-07-25T02:24:37.266Z,56.12
2022-07-25T02:27:10.773Z,55.86
2022-07-25T02:29:43.784Z,55.94
2022-07-25T02:32:16.846Z,55.86
2022-07-25T02:34:49.828Z,55.64
2022-07-25T02:37:24.467Z,55.68
2022-07-25T02:39:57.415Z,55.92
2022-07-25T02:42:30.417Z,55.90
2022-07-25T02:45:03.389Z,56.14
2022-07-25T02:47:36.446Z,56.67
2022-07-25T02:50:14.716Z,56.51
2022-07-25T02:52:46.486Z,56.81
2022-07-25T02:55:19.477Z,57.00
2022-07-25T02:57:52.442Z,56.71
2022-07-25T03:00:26.019Z,57.12
2022-07-25T03:03:01.033Z,57.26
2022-07-25T03:05:34.505Z,57.63
2022-07-25T03:08:09.850Z,57.31
2022-07-25T03:10:43.099Z,57.17
2022-07-25T03:13:16.151Z,56.96
2022-07-25T03:15:49.640Z,57.09
2022-07-25T03:18:23.844Z,57.18
2022-07-25T03:20:58.501Z,56.85
2022-07-25T03:23:31.783Z,56.50
2022-07-25T03:26:05.208Z,56.30
2022-07-25T03:28:38.658Z,56.29
2022-07-25T03:31:11.909Z,56.01
2022-07-25T03:33:44.944Z,56.07
2022-07-25T03:36:19.415Z,56.05
2022-07-25T03:38:52.427Z,55.86
2022-07-25T03:41:27.802Z,55.55
2022-07-25T03:44:00.626Z,56.10
2022-07-25T03:46:33.953Z,56.51
2022-07-25T03:49:07.773Z,56.13
2022-07-25T03:51:43.940Z,56.75
2022-07-25T03:54:16.937Z,56.16
2022-07-25T03:56:52.344Z,55.82
2022-07-25T03:59:25.425Z,55.61
2022-07-25T04:01:59.696Z,55.67
2022-07-25T04:04:32.801Z,55.95
2022-07-25T04:07:06.030Z,55.83
2022-07-25T04:09:39.081Z,56.29
2022-07-25T04:12:12.203Z,56.33
2022-07-25T04:14:45.836Z,56.35
2022-07-25T04:17:19.938Z,56.41
2022-07-25T04:19:54.274Z,56.39
2022-07-25T04:22:29.206Z,56.21
2022-07-25T04:25:02.830Z,56.39
2022-07-25T04:27:35.944Z,56.16
2022-07-25T04:30:11.932Z,55.86
2022-07-25T04:32:45.269Z,55.89
2022-07-25T04:35:18.572Z,55.59
2022-07-25T04:37:51.633Z,55.29
2022-07-25T04:40:24.712Z,54.85
2022-07-25T04:43:00.604Z,55.04
2022-07-25T04:45:34.883Z,54.86
2022-07-25T04:48:09.688Z,54.71
2022-07-25T04:50:42.728Z,54.30
2022-07-25T04:53:15.938Z,54.40
2022-07-25T04:55:49.483Z,54.36
2022-07-25T04:58:25.499Z,54.33
2022-07-25T05:00:58.832Z,53.69
2022-07-25T05:03:31.953Z,53.54
2022-07-25T05:06:05.416Z,53.58
2022-07-25T05:08:38.488Z,53.87
2022-07-25T05:11:11.492Z,53.45
2022-07-25T05:13:44.761Z,53.10
2022-07-25T05:16:17.840Z,52.93
2022-07-25T05:18:50.964Z,53.04
2022-07-25T05:21:24.413Z,53.36
2022-07-25T05:23:57.604Z,53.40
2022-07-25T05:26:31.052Z,53.38
2022-07-25T05:29:04.153Z,53.13
2022-07-25T05:31:38.516Z,52.76
2022-07-25T05:34:12.587Z,53.02
2022-07-25T05:36:47.396Z,53.40
2022-07-25T05:39:21.658Z,53.53
2022-07-25T05:41:54.691Z,53.27
2022-07-25T05:44:29.079Z,53.20
2022-07-25T05:47:02.588Z,52.96
2022-07-25T05:49:35.701Z,52.77
2022-07-25T05:52:12.917Z,52.51
2022-07-25T05:54:44.373Z,52.08
2022-07-25T05:57:17.483Z,51.61
2022-07-25T05:59:50.729Z,51.35
2022-07-25T06:02:23.939Z,50.81
2022-07-25T06:04:57.237Z,50.08
2022-07-25T06:07:30.297Z,49.82
2022-07-25T06:10:03.484Z,49.60
2022-07-25T06:12:36.967Z,49.09
2022-07-25T06:15:17.663Z,48.77
2022-07-25T06:17:46.667Z,48.76
2022-07-25T06:20:20.223Z,48.71
2022-07-25T06:22:53.448Z,48.58
2022-07-25T06:25:26.919Z,48.49
2022-07-25T06:28:01.136Z,48.70
2022-07-25T06:30:34.548Z,48.64
2022-07-25T06:33:07.757Z,48.88
2022-07-25T06:35:40.795Z,48.34
2022-07-25T06:38:13.953Z,48.10
2022-07-25T06:40:47.322Z,48.06
2022-07-25T06:43:20.319Z,47.72
2022-07-25T06:45:56.459Z,47.67
2022-07-25T06:48:30.677Z,47.38
2022-07-25T06:51:04.937Z,47.13
2022-07-25T06:53:39.742Z,46.58
2022-07-25T06:56:17.473Z,45.82
2022-07-25T06:58:47.430Z,45.45
2022-07-25T07:01:20.856Z,45.07
2022-07-25T07:03:54.229Z,43.66
2022-07-25T07:06:27.303Z,42.40
2022-07-25T07:09:00.380Z,40.49
2022-07-25T07:11:34.440Z,37.72
2022-07-25T07:14:08.027Z,35.42
2022-07-25T07:16:42.577Z,34.29
2022-07-25T07:19:15.977Z,36.17
2022-07-25T07:21:51.548Z,37.66
2022-07-25T07:24:24.845Z,37.49
2022-07-25T07:26:57.827Z,37.98
2022-07-25T07:29:32.193Z,39.19
2022-07-25T07:32:06.641Z,40.16
2022-07-25T07:34:40.352Z,40.52
2022-07-25T07:37:13.290Z,40.55
2022-07-25T07:39:46.303Z,41.35
2022-07-25T07:42:19.341Z,40.96
2022-07-25T07:44:52.692Z,40.49
2022-07-25T07:47:25.804Z,39.23
2022-07-25T07:49:58.764Z,38.42
2022-07-25T07:52:32.036Z,38.45
2022-07-25T07:55:22.903Z,38.55
2022-07-25T07:58:00.419Z,38.58
2022-07-25T08:00:38.957Z,38.83
2022-07-25T08:03:12.282Z,38.63
2022-07-25T08:05:46.663Z,38.70
2022-07-25T08:08:19.789Z,38.55
2022-07-25T08:10:58.374Z,38.82
2022-07-25T08:13:30.837Z,39.30
2022-07-25T08:16:05.375Z,39.04
2022-07-25T08:18:38.818Z,35.92
2022-07-25T08:21:12.187Z,32.17
2022-07-25T08:23:48.369Z,30.86
2022-07-25T08:26:21.635Z,31.63
2022-07-25T08:29:17.137Z,33.91
2022-07-25T08:31:30.601Z,35.86
2022-07-25T08:34:05.611Z,36.65
2022-07-25T08:36:39.436Z,37.75
2022-07-25T08:39:12.482Z,37.94
2022-07-25T08:41:46.025Z,37.77
2022-07-25T08:44:21.469Z,34.92
2022-07-25T08:46:55.677Z,33.46
2022-07-25T08:49:30.000Z,34.78
2022-07-25T08:52:04.656Z,36.01
2022-07-25T08:54:38.313Z,36.96
2022-07-25T08:57:12.151Z,38.03
2022-07-25T08:59:46.151Z,37.97
2022-07-25T09:02:19.287Z,36.62
2022-07-25T09:04:53.618Z,35.63
2022-07-25T09:07:34.542Z,35.04
2022-07-25T09:10:27.901Z,35.13
2022-07-25T09:13:02.787Z,35.27
2022-07-25T09:15:37.301Z,35.47
2022-07-25T09:18:13.434Z,36.11
2022-07-25T09:20:49.920Z,37.45
2022-07-25T09:23:32.278Z,40.00
2022-07-25T09:26:07.466Z,41.65
2022-07-25T09:28:44.786Z,39.35
2022-07-25T09:31:21.676Z,36.09
2022-07-25T09:33:57.065Z,36.27
2022-07-25T09:36:30.100Z,37.48
2022-07-25T09:39:05.861Z,35.16
2022-07-25T09:41:42.835Z,34.07
2022-07-25T09:44:23.155Z,32.80
2022-07-25T09:46:56.699Z,34.08
2022-07-25T09:49:40.043Z,35.47
2022-07-25T09:52:14.345Z,35.69
2022-07-25T09:54:47.821Z,33.50
2022-07-25T09:57:21.152Z,33.38
2022-07-25T09:59:56.150Z,33.48
2022-07-25T10:02:36.083Z,31.76
2022-07-25T10:05:16.910Z,31.08
2022-07-25T10:07:52.673Z,30.71
2022-07-25T10:10:28.783Z,32.45
2022-07-25T10:13:09.500Z,32.94
2022-07-25T10:15:45.473Z,31.06
2022-07-25T10:18:20.210Z,29.89
2022-07-25T10:20:55.545Z,28.42
2022-07-25T10:23:29.912Z,30.02
2022-07-25T10:26:06.107Z,31.08
2022-07-25T10:28:44.906Z,29.24
2022-07-25T10:31:21.412Z,27.66
2022-07-25T10:33:57.354Z,26.69
2022-07-25T10:36:34.450Z,25.70
2022-07-25T10:39:10.092Z,27.13
2022-07-25T10:41:44.900Z,25.85
2022-07-25T10:44:18.659Z,25.71
2022-07-25T10:46:52.117Z,25.43
2022-07-25T10:49:31.787Z,25.28
2022-07-25T10:52:03.436Z,24.26
2022-07-25T10:54:38.056Z,23.61
2022-07-25T10:57:17.389Z,23.56
2022-07-25T10:59:50.848Z,25.00
2022-07-25T11:02:25.846Z,28.00
2022-07-25T11:05:05.277Z,29.55
2022-07-25T11:07:38.599Z,29.55
2022-07-25T11:10:12.516Z,28.36
2022-07-25T11:12:49.263Z,27.74
2022-07-25T11:15:25.570Z,26.48
2022-07-25T11:17:58.665Z,25.70
2022-07-25T11:20:32.379Z,25.18
2022-07-25T11:23:05.572Z,24.70
2022-07-25T11:25:38.761Z,24.52
2022-07-25T11:28:12.579Z,23.93
2022-07-25T11:30:45.777Z,22.61
2022-07-25T11:33:19.060Z,21.50
2022-07-25T11:35:52.439Z,21.79
2022-07-25T11:38:25.789Z,21.75
2022-07-25T11:40:59.646Z,24.08
2022-07-25T11:43:33.211Z,26.07
2022-07-25T11:46:08.578Z,27.65
2022-07-25T11:48:43.118Z,28.84
2022-07-25T11:51:19.571Z,30.15
2022-07-25T11:53:53.762Z,30.97
2022-07-25T11:56:42.413Z,31.67
2022-07-25T11:59:02.371Z,32.26
2022-07-25T12:01:41.799Z,30.09
2022-07-25T12:04:17.120Z,29.51
2022-07-25T12:06:51.417Z,28.32
2022-07-25T12:09:24.902Z,27.29
2022-07-25T12:12:05.063Z,27.37
2022-07-25T12:14:46.987Z,27.24
2022-07-25T12:17:20.351Z,26.55
2022-07-25T12:19:53.584Z,25.00
2022-07-25T12:22:26.879Z,24.61
2022-07-25T12:25:00.150Z,24.47
2022-07-25T12:27:34.441Z,23.57
2022-07-25T12:30:10.019Z,23.53
2022-07-25T12:32:43.582Z,22.72
2022-07-25T12:35:17.144Z,23.14
2022-07-25T12:37:52.024Z,23.97
2022-07-25T12:40:25.495Z,24.57
2022-07-25T12:42:59.546Z,25.15
2022-07-25T12:45:32.952Z,24.07
2022-07-25T12:48:06.780Z,23.60
2022-07-25T12:50:40.503Z,23.48
2022-07-25T12:53:14.434Z,22.76
2022-07-25T12:55:47.696Z,22.90
2022-07-25T12:58:21.565Z,23.16
2022-07-25T13:00:58.161Z,23.17
2022-07-25T13:03:29.668Z,22.82
2022-07-25T13:06:03.134Z,22.48
2022-07-25T13:08:37.881Z,22.30
2022-07-25T13:11:12.874Z,22.62
2022-07-25T13:13:46.189Z,23.43
2022-07-25T13:16:19.659Z,23.40
2022-07-25T13:18:52.921Z,23.41
2022-07-25T13:21:26.500Z,23.00
2022-07-25T13:23:59.625Z,22.86
2022-07-25T13:26:34.485Z,23.71
2022-07-25T13:29:09.602Z,25.57
2022-07-25T13:31:44.705Z,27.38
2022-07-25T13:34:18.588Z,28.98
2022-07-25T13:36:51.934Z,30.12
2022-07-25T13:39:25.520Z,29.97
2022-07-25T13:41:58.816Z,30.40
2022-07-25T13:44:32.269Z,31.24
2022-07-25T13:47:06.061Z,31.68
2022-07-25T13:49:39.412Z,31.76
2022-07-25T13:52:12.566Z,31.81
2022-07-25T13:54:47.440Z,32.37
2022-07-25T13:57:20.904Z,33.09
2022-07-25T13:59:54.350Z,33.47
2022-07-25T14:02:27.771Z,33.53
2022-07-25T14:05:04.253Z,33.42
2022-07-25T14:07:37.417Z,32.89
2022-07-25T14:10:12.658Z,30.40
2022-07-25T14:12:47.373Z,29.96
2022-07-25T14:15:21.992Z,30.83
2022-07-25T14:17:54.952Z,30.72
2022-07-25T14:20:29.923Z,30.23
2022-07-25T14:23:03.237Z,30.31
2022-07-25T14:25:36.779Z,29.96
2022-07-25T14:28:10.561Z,29.99
2022-07-25T14:30:44.037Z,30.35
2022-07-25T14:33:17.377Z,30.70
2022-07-25T14:35:50.675Z,30.18
2022-07-25T14:38:24.018Z,29.66
2022-07-25T14:40:58.092Z,29.77
2022-07-25T14:43:31.434Z,29.96
2022-07-25T14:46:05.316Z,29.62
2022-07-25T14:48:39.625Z,29.22
2022-07-25T14:51:13.292Z,28.37
2022-07-25T14:53:50.068Z,28.08
2022-07-25T14:56:21.488Z,28.38
2022-07-25T14:58:54.503Z,28.59
2022-07-25T15:01:27.940Z,29.12
2022-07-25T15:04:01.397Z,29.30
2022-07-25T15:06:34.961Z,29.40
2022-07-25T15:09:08.902Z,29.80
2022-07-25T15:11:42.526Z,29.69
2022-07-25T15:14:15.799Z,29.46
2022-07-25T15:16:49.078Z,30.15
2022-07-25T15:19:22.506Z,30.54
2022-07-25T15:21:55.901Z,30.46
2022-07-25T15:24:29.478Z,30.34
2022-07-25T15:27:02.898Z,29.94
2022-07-25T15:29:36.245Z,29.82
2022-07-25T15:32:10.177Z,29.48
2022-07-25T15:34:43.482Z,29.71
2022-07-25T15:37:16.480Z,30.51
2022-07-25T15:39:49.876Z,31.29
2022-07-25T15:42:27.167Z,31.87
2022-07-25T15:45:31.405Z,31.94
2022-07-25T15:47:35.030Z,32.71
2022-07-25T15:50:09.563Z,33.65
2022-07-25T15:52:42.721Z,34.31
2022-07-25T15:55:16.335Z,34.27
2022-07-25T15:57:49.466Z,34.57
2022-07-25T16:00:26.110Z,34.56
2022-07-25T16:02:58.287Z,34.27
2022-07-25T16:05:31.791Z,34.43
2022-07-25T16:08:05.531Z,34.57
2022-07-25T16:10:39.098Z,35.26
2022-07-25T16:13:12.249Z,35.37
2022-07-25T16:15:45.878Z,35.43
2022-07-25T16:18:19.245Z,35.32
2022-07-25T16:20:52.606Z,35.56
2022-07-25T16:23:27.620Z,35.81
2022-07-25T16:26:01.109Z,35.74
2022-07-25T16:28:33.988Z,35.68
2022-07-25T16:31:08.109Z,35.76
2022-07-25T16:33:41.407Z,35.96
2022-07-25T16:36:14.709Z,36.24
2022-07-25T16:38:49.251Z,36.55
2022-07-25T16:41:22.757Z,36.83
2022-07-25T16:43:56.167Z,36.91
2022-07-25T16:46:29.487Z,37.15
2022-07-25T16:49:02.768Z,37.12
2022-07-25T16:51:37.259Z,37.25
2022-07-25T16:54:11.721Z,37.69
2022-07-25T16:56:45.176Z,39.19
2022-07-25T16:59:18.291Z,38.80
2022-07-25T17:01:51.714Z,39.27
2022-07-25T17:04:25.003Z,40.00
2022-07-25T17:06:58.498Z,40.04
2022-07-25T17:09:32.153Z,40.91
2022-07-25T17:12:06.234Z,41.74
2022-07-25T17:14:42.601Z,43.08
2022-07-25T17:17:15.742Z,45.06
2022-07-25T17:19:49.059Z,46.73
2022-07-25T17:22:22.080Z,48.24
2022-07-25T17:24:55.017Z,49.89
2022-07-25T17:27:28.175Z,51.33
2022-07-25T17:30:01.493Z,51.75
2022-07-25T17:32:34.562Z,53.20
2022-07-25T17:35:08.842Z,53.50
2022-07-25T17:37:43.252Z,53.53
2022-07-25T17:40:16.433Z,53.88
2022-07-25T17:42:49.424Z,53.73
2022-07-25T17:45:22.644Z,53.44
2022-07-25T17:47:55.865Z,53.70
2022-07-25T17:50:29.683Z,53.30
2022-07-25T17:53:03.309Z,53.38
2022-07-25T17:55:39.119Z,53.57
2022-07-25T17:58:12.889Z,53.74
2022-07-25T18:00:45.802Z,54.00
2022-07-25T18:03:24.930Z,54.44
2022-07-25T18:05:58.036Z,54.83
2022-07-25T18:08:33.115Z,55.64
2022-07-25T18:11:06.694Z,56.04
2022-07-25T18:13:43.867Z,55.95
2022-07-25T18:16:17.563Z,55.42
2022-07-25T18:18:54.846Z,54.89
2022-07-25T18:21:29.212Z,55.02
2022-07-25T18:24:12.008Z,49.53
2022-07-25T18:26:46.197Z,54.86
2022-07-25T18:29:20.333Z,54.97
2022-07-25T18:31:54.041Z,54.61
2022-07-25T18:34:27.157Z,54.54
2022-07-25T18:37:00.562Z,54.89
2022-07-25T18:39:33.751Z,55.35
2022-07-25T18:42:07.566Z,55.80
2022-07-25T18:44:40.525Z,55.85
2022-07-25T18:47:14.117Z,55.58
2022-07-25T18:49:49.088Z,55.55
2022-07-25T18:55:20.811Z,54.79
2022-07-25T18:57:54.320Z,54.95
2022-07-25T19:00:28.014Z,55.26
2022-07-25T19:03:01.415Z,55.06
2022-07-25T19:05:34.580Z,55.62
2022-07-25T19:08:09.169Z,55.68
2022-07-25T19:10:42.223Z,55.41
2022-07-25T19:13:39.206Z,55.11
2022-07-25T19:15:50.469Z,55.01
2022-07-25T19:18:29.170Z,54.71
2022-07-25T19:20:58.646Z,54.52
2022-07-25T19:23:32.040Z,54.28
2022-07-25T19:26:08.385Z,54.19
2022-07-25T19:28:41.478Z,54.25
2022-07-25T19:31:14.764Z,54.32
2022-07-25T19:33:50.896Z,54.68
2022-07-25T19:36:24.008Z,54.72
2022-07-25T19:38:56.995Z,54.67
2022-07-25T19:41:31.736Z,54.31
2022-07-25T19:44:05.256Z,54.17
2022-07-25T19:46:38.656Z,54.22
2022-07-25T19:49:11.920Z,54.31
2022-07-25T19:51:45.052Z,54.20
2022-07-25T19:54:19.741Z,53.97
2022-07-25T19:56:53.568Z,53.86
2022-07-25T19:59:26.988Z,54.33
2022-07-25T20:02:01.037Z,54.25
2022-07-25T20:04:34.176Z,54.52
2022-07-25T20:07:07.772Z,54.80
2022-07-25T20:09:41.205Z,54.92
2022-07-25T20:12:17.311Z,55.02
2022-07-25T20:14:50.619Z,55.12
2022-07-25T20:17:23.903Z,55.17
2022-07-25T20:19:56.915Z,55.18
2022-07-25T20:22:31.568Z,55.32
2022-07-25T20:25:06.161Z,55.03
2022-07-25T20:27:42.871Z,55.17
2022-07-25T20:30:21.789Z,55.16
2022-07-25T20:32:58.138Z,55.05
2022-07-25T20:35:34.563Z,54.83
2022-07-25T20:38:09.301Z,54.73
2022-07-25T20:40:49.238Z,54.56
2022-07-25T20:43:19.256Z,54.65
2022-07-25T20:45:52.469Z,54.59
2022-07-25T20:48:26.144Z,54.59
2022-07-25T20:50:59.427Z,54.67
2022-07-25T20:53:32.537Z,54.72
2022-07-25T20:56:05.900Z,54.70
2022-07-25T20:58:39.205Z,54.59
2022-07-25T21:01:12.750Z,54.37
2022-07-25T21:03:46.058Z,54.33
2022-07-25T21:06:19.294Z,54.32
2022-07-25T21:08:52.795Z,54.27
2022-07-25T21:11:26.176Z,54.40
2022-07-25T21:13:59.801Z,54.38
2022-07-25T21:16:34.632Z,54.16
2022-07-25T21:19:08.552Z,54.07
2022-07-25T21:24:49.433Z,52.93
2022-07-25T21:27:26.123Z,54.16
2022-07-25T21:29:59.647Z,54.32
2022-07-25T21:32:34.841Z,54.24
2022-07-25T21:38:26.047Z,53.13
2022-07-25T21:40:54.191Z,54.61
2022-07-25T21:43:27.680Z,54.77
2022-07-25T21:46:00.799Z,55.20
2022-07-25T21:48:51.070Z,55.31
2022-07-25T21:51:26.080Z,55.30
2022-07-25T21:54:00.885Z,55.42
2022-07-25T21:56:57.731Z,55.67
2022-07-25T21:59:36.802Z,55.71
2022-07-25T22:05:45.911Z,55.64
2022-07-25T22:09:26.642Z,55.47
2022-07-25T22:22:04.337Z,53.70
2022-07-25T22:24:41.852Z,55.72
2022-07-25T22:27:12.926Z,55.87
2022-07-25T22:29:46.018Z,56.06
2022-07-25T22:32:19.070Z,56.02
2022-07-25T22:34:52.118Z,56.01
2022-07-25T22:37:25.026Z,55.89
2022-07-25T22:40:01.139Z,55.83
2022-07-25T22:42:34.677Z,55.66
2022-07-25T22:45:09.550Z,55.86
2022-07-25T23:18:21.970Z,54.35
2022-07-25T23:20:55.149Z,56.42
2022-07-25T23:26:17.770Z,56.39
2022-07-25T23:28:50.931Z,57.43
2022-07-25T23:31:24.284Z,57.61
2022-07-25T23:33:57.470Z,57.82
2022-07-25T23:36:36.886Z,58.04
2022-07-25T23:39:10.505Z,58.44
2022-07-25T23:41:44.651Z,58.60
2022-07-25T23:44:17.803Z,58.65
2022-07-25T23:46:51.860Z,58.72
2022-07-25T23:49:25.580Z,58.91
2022-07-25T23:51:58.915Z,58.95
2022-07-25T23:54:33.594Z,58.97
2022-07-25T23:57:07.344Z,59.12
2022-07-25T23:59:40.314Z,59.25
